sensor_id;sensor_type;location;lat;lon;timestamp;P1;durP1;ratioP1;P2;durP2;ratioP2
67554;SDS011;54385;53.516;49.456;2023-08-06T00:00:59;2.50;;;2.30;;
67554;SDS011;54385;53.516;49.456;2023-08-06T00:03:26;2.60;;;2.40;;
67554;SDS011;54385;53.516;49.456;2023-08-06T00:05:52;3.03;;;2.72;;
67554;SDS011;54385;53.516;49.456;2023-08-06T00:08:19;2.67;;;2.45;;
67554;SDS011;54385;53.516;49.456;2023-08-06T00:10:47;2.58;;;2.38;;
67554;SDS011;54385;53.516;49.456;2023-08-06T00:13:14;2.60;;;2.40;;
67554;SDS011;54385;53.516;49.456;2023-08-06T00:15:41;2.70;;;2.40;;
67554;SDS011;54385;53.516;49.456;2023-08-06T00:18:07;2.70;;;2.50;;
67554;SDS011;54385;53.516;49.456;2023-08-06T00:20:34;2.70;;;2.50;;
67554;SDS011;54385;53.516;49.456;2023-08-06T00:23:00;2.45;;;2.25;;
67554;SDS011;54385;53.516;49.456;2023-08-06T00:25:28;2.67;;;2.47;;
67554;SDS011;54385;53.516;49.456;2023-08-06T00:27:54;2.47;;;2.15;;
67554;SDS011;54385;53.516;49.456;2023-08-06T00:30:22;2.70;;;2.50;;
67554;SDS011;54385;53.516;49.456;2023-08-06T00:32:48;2.90;;;2.35;;
67554;SDS011;54385;53.516;49.456;2023-08-06T00:37:47;2.42;;;2.10;;
67554;SDS011;54385;53.516;49.456;2023-08-06T00:40:13;2.33;;;2.13;;
67554;SDS011;54385;53.516;49.456;2023-08-06T00:42:40;2.60;;;2.33;;
67554;SDS011;54385;53.516;49.456;2023-08-06T00:45:07;2.50;;;2.30;;
67554;SDS011;54385;53.516;49.456;2023-08-06T00:47:33;2.40;;;2.20;;
67554;SDS011;54385;53.516;49.456;2023-08-06T00:50:00;3.08;;;2.42;;
67554;SDS011;54385;53.516;49.456;2023-08-06T00:52:27;2.75;;;2.55;;
67554;SDS011;54385;53.516;49.456;2023-08-06T00:54:54;2.60;;;2.40;;
67554;SDS011;54385;53.516;49.456;2023-08-06T00:57:21;2.97;;;2.67;;
67554;SDS011;54385;53.516;49.456;2023-08-06T00:59:52;2.95;;;2.50;;
67554;SDS011;54385;53.516;49.456;2023-08-06T01:02:19;2.60;;;2.40;;
67554;SDS011;54385;53.516;49.456;2023-08-06T01:04:46;3.10;;;2.80;;
67554;SDS011;54385;53.516;49.456;2023-08-06T01:07:17;2.40;;;2.20;;
67554;SDS011;54385;53.516;49.456;2023-08-06T01:09:50;3.15;;;2.60;;
67554;SDS011;54385;53.516;49.456;2023-08-06T01:15:07;2.90;;;2.63;;
67554;SDS011;54385;53.516;49.456;2023-08-06T01:17:42;3.55;;;2.92;;
67554;SDS011;54385;53.516;49.456;2023-08-06T01:20:11;2.65;;;2.45;;
67554;SDS011;54385;53.516;49.456;2023-08-06T01:22:37;2.13;;;1.92;;
67554;SDS011;54385;53.516;49.456;2023-08-06T01:25:04;2.63;;;2.42;;
67554;SDS011;54385;53.516;49.456;2023-08-06T01:30:24;2.60;;;2.40;;
67554;SDS011;54385;53.516;49.456;2023-08-06T01:32:54;2.53;;;2.33;;
67554;SDS011;54385;53.516;49.456;2023-08-06T01:35:32;2.70;;;2.50;;
67554;SDS011;54385;53.516;49.456;2023-08-06T01:37:59;3.13;;;2.83;;
67554;SDS011;54385;53.516;49.456;2023-08-06T01:40:27;2.58;;;2.33;;
67554;SDS011;54385;53.516;49.456;2023-08-06T01:42:55;2.65;;;2.45;;
67554;SDS011;54385;53.516;49.456;2023-08-06T01:45:22;2.45;;;2.25;;
67554;SDS011;54385;53.516;49.456;2023-08-06T01:47:48;2.65;;;2.45;;
67554;SDS011;54385;53.516;49.456;2023-08-06T01:50:15;2.40;;;2.20;;
67554;SDS011;54385;53.516;49.456;2023-08-06T01:52:41;2.38;;;2.17;;
67554;SDS011;54385;53.516;49.456;2023-08-06T01:55:10;2.72;;;2.40;;
67554;SDS011;54385;53.516;49.456;2023-08-06T01:57:37;2.50;;;2.30;;
67554;SDS011;54385;53.516;49.456;2023-08-06T02:00:03;2.63;;;2.42;;
67554;SDS011;54385;53.516;49.456;2023-08-06T02:02:32;2.45;;;2.25;;
67554;SDS011;54385;53.516;49.456;2023-08-06T02:04:59;2.63;;;2.42;;
67554;SDS011;54385;53.516;49.456;2023-08-06T02:07:26;2.60;;;2.40;;
67554;SDS011;54385;53.516;49.456;2023-08-06T02:09:52;2.63;;;2.42;;
67554;SDS011;54385;53.516;49.456;2023-08-06T02:12:19;2.65;;;2.40;;
67554;SDS011;54385;53.516;49.456;2023-08-06T02:14:45;2.60;;;2.40;;
67554;SDS011;54385;53.516;49.456;2023-08-06T02:17:12;2.60;;;2.40;;
67554;SDS011;54385;53.516;49.456;2023-08-06T02:19:38;2.40;;;2.20;;
67554;SDS011;54385;53.516;49.456;2023-08-06T02:22:05;2.28;;;2.08;;
67554;SDS011;54385;53.516;49.456;2023-08-06T02:24:34;2.60;;;2.40;;
67554;SDS011;54385;53.516;49.456;2023-08-06T02:27:00;2.40;;;2.20;;
67554;SDS011;54385;53.516;49.456;2023-08-06T02:29:27;2.00;;;1.80;;
67554;SDS011;54385;53.516;49.456;2023-08-06T02:31:56;1.80;;;1.70;;
67554;SDS011;54385;53.516;49.456;2023-08-06T02:34:28;2.10;;;1.90;;
67554;SDS011;54385;53.516;49.456;2023-08-06T02:36:55;2.28;;;2.08;;
67554;SDS011;54385;53.516;49.456;2023-08-06T02:39:21;2.40;;;2.20;;
67554;SDS011;54385;53.516;49.456;2023-08-06T02:41:48;2.53;;;2.33;;
67554;SDS011;54385;53.516;49.456;2023-08-06T02:44:14;2.35;;;2.15;;
67554;SDS011;54385;53.516;49.456;2023-08-06T02:46:41;2.50;;;2.30;;
67554;SDS011;54385;53.516;49.456;2023-08-06T02:49:07;2.30;;;2.08;;
67554;SDS011;54385;53.516;49.456;2023-08-06T02:51:34;2.60;;;2.40;;
67554;SDS011;54385;53.516;49.456;2023-08-06T02:54:00;2.10;;;1.90;;
67554;SDS011;54385;53.516;49.456;2023-08-06T02:56:27;2.60;;;2.40;;
67554;SDS011;54385;53.516;49.456;2023-08-06T02:58:53;2.50;;;2.30;;
67554;SDS011;54385;53.516;49.456;2023-08-06T03:01:20;2.42;;;2.22;;
67554;SDS011;54385;53.516;49.456;2023-08-06T03:03:49;2.30;;;2.10;;
67554;SDS011;54385;53.516;49.456;2023-08-06T03:06:15;2.45;;;2.25;;
67554;SDS011;54385;53.516;49.456;2023-08-06T03:08:42;2.30;;;2.10;;
67554;SDS011;54385;53.516;49.456;2023-08-06T03:11:08;2.92;;;2.63;;
67554;SDS011;54385;53.516;49.456;2023-08-06T03:13:35;2.50;;;2.30;;
67554;SDS011;54385;53.516;49.456;2023-08-06T03:16:02;2.75;;;2.50;;
67554;SDS011;54385;53.516;49.456;2023-08-06T03:18:28;2.60;;;2.30;;
67554;SDS011;54385;53.516;49.456;2023-08-06T03:20:55;2.53;;;2.33;;
67554;SDS011;54385;53.516;49.456;2023-08-06T03:23:22;2.20;;;2.00;;
67554;SDS011;54385;53.516;49.456;2023-08-06T03:25:49;2.40;;;2.20;;
67554;SDS011;54385;53.516;49.456;2023-08-06T03:28:15;2.40;;;2.20;;
67554;SDS011;54385;53.516;49.456;2023-08-06T03:30:42;2.40;;;2.20;;
67554;SDS011;54385;53.516;49.456;2023-08-06T03:33:09;2.50;;;2.30;;
67554;SDS011;54385;53.516;49.456;2023-08-06T03:35:41;2.20;;;2.00;;
67554;SDS011;54385;53.516;49.456;2023-08-06T03:38:12;2.35;;;2.15;;
67554;SDS011;54385;53.516;49.456;2023-08-06T03:40:45;2.40;;;2.20;;
67554;SDS011;54385;53.516;49.456;2023-08-06T03:43:18;2.35;;;2.15;;
67554;SDS011;54385;53.516;49.456;2023-08-06T03:48:21;2.50;;;2.30;;
67554;SDS011;54385;53.516;49.456;2023-08-06T03:53:25;2.15;;;1.90;;
67554;SDS011;54385;53.516;49.456;2023-08-06T03:55:57;2.20;;;1.85;;
67554;SDS011;54385;53.516;49.456;2023-08-06T03:58:31;2.40;;;2.20;;
67554;SDS011;54385;53.516;49.456;2023-08-06T04:01:03;2.45;;;2.25;;
67554;SDS011;54385;53.516;49.456;2023-08-06T04:06:06;2.30;;;2.10;;
67554;SDS011;54385;53.516;49.456;2023-08-06T04:08:38;2.10;;;2.00;;
67554;SDS011;54385;53.516;49.456;2023-08-06T04:11:10;1.83;;;1.73;;
67554;SDS011;54385;53.516;49.456;2023-08-06T04:13:44;2.03;;;1.83;;
67554;SDS011;54385;53.516;49.456;2023-08-06T04:18:47;2.10;;;1.88;;
67554;SDS011;54385;53.516;49.456;2023-08-06T04:23:51;1.90;;;1.80;;
67554;SDS011;54385;53.516;49.456;2023-08-06T04:26:23;2.08;;;1.88;;
67554;SDS011;54385;53.516;49.456;2023-08-06T04:28:54;2.40;;;2.20;;
67554;SDS011;54385;53.516;49.456;2023-08-06T04:31:26;2.17;;;1.98;;
67554;SDS011;54385;53.516;49.456;2023-08-06T04:34:00;2.08;;;1.88;;
67554;SDS011;54385;53.516;49.456;2023-08-06T04:36:35;2.20;;;2.00;;
67554;SDS011;54385;53.516;49.456;2023-08-06T04:39:06;2.08;;;1.98;;
67554;SDS011;54385;53.516;49.456;2023-08-06T04:41:38;2.20;;;1.98;;
67554;SDS011;54385;53.516;49.456;2023-08-06T04:44:10;2.10;;;1.90;;
67554;SDS011;54385;53.516;49.456;2023-08-06T04:46:47;2.22;;;2.03;;
67554;SDS011;54385;53.516;49.456;2023-08-06T04:49:20;2.22;;;2.00;;
67554;SDS011;54385;53.516;49.456;2023-08-06T04:51:52;2.17;;;1.98;;
67554;SDS011;54385;53.516;49.456;2023-08-06T04:54:27;2.40;;;2.20;;
67554;SDS011;54385;53.516;49.456;2023-08-06T04:56:59;2.40;;;2.20;;
67554;SDS011;54385;53.516;49.456;2023-08-06T04:59:30;2.47;;;2.28;;
67554;SDS011;54385;53.516;49.456;2023-08-06T05:02:02;2.40;;;2.20;;
67554;SDS011;54385;53.516;49.456;2023-08-06T05:04:37;2.35;;;2.13;;
67554;SDS011;54385;53.516;49.456;2023-08-06T05:09:41;2.33;;;2.13;;
67554;SDS011;54385;53.516;49.456;2023-08-06T05:12:13;2.78;;;2.25;;
67554;SDS011;54385;53.516;49.456;2023-08-06T05:14:44;2.40;;;2.20;;
67554;SDS011;54385;53.516;49.456;2023-08-06T05:17:19;2.30;;;2.10;;
67554;SDS011;54385;53.516;49.456;2023-08-06T05:19:54;2.35;;;2.15;;
67554;SDS011;54385;53.516;49.456;2023-08-06T05:22:25;2.20;;;2.00;;
67554;SDS011;54385;53.516;49.456;2023-08-06T05:24:57;2.10;;;1.90;;
67554;SDS011;54385;53.516;49.456;2023-08-06T05:27:29;2.08;;;1.92;;
67554;SDS011;54385;53.516;49.456;2023-08-06T05:30:01;2.15;;;1.95;;
67554;SDS011;54385;53.516;49.456;2023-08-06T05:32:32;2.30;;;2.10;;
67554;SDS011;54385;53.516;49.456;2023-08-06T05:35:04;2.22;;;2.03;;
67554;SDS011;54385;53.516;49.456;2023-08-06T05:37:37;2.35;;;2.15;;
67554;SDS011;54385;53.516;49.456;2023-08-06T05:40:09;2.25;;;2.05;;
67554;SDS011;54385;53.516;49.456;2023-08-06T05:42:40;2.30;;;2.10;;
67554;SDS011;54385;53.516;49.456;2023-08-06T05:45:12;2.45;;;2.25;;
67554;SDS011;54385;53.516;49.456;2023-08-06T05:47:45;1.88;;;1.77;;
67554;SDS011;54385;53.516;49.456;2023-08-06T05:50:16;2.10;;;1.90;;
67554;SDS011;54385;53.516;49.456;2023-08-06T05:52:48;2.50;;;2.28;;
67554;SDS011;54385;53.516;49.456;2023-08-06T05:55:20;2.05;;;1.85;;
67554;SDS011;54385;53.516;49.456;2023-08-06T05:57:52;2.25;;;2.05;;
67554;SDS011;54385;53.516;49.456;2023-08-06T06:00:23;2.25;;;1.70;;
67554;SDS011;54385;53.516;49.456;2023-08-06T06:02:55;2.05;;;1.85;;
67554;SDS011;54385;53.516;49.456;2023-08-06T06:05:27;2.78;;;2.10;;
67554;SDS011;54385;53.516;49.456;2023-08-06T06:07:59;2.47;;;1.98;;
67554;SDS011;54385;53.516;49.456;2023-08-06T06:10:30;1.95;;;1.75;;
67554;SDS011;54385;53.516;49.456;2023-08-06T06:13:02;2.20;;;2.00;;
67554;SDS011;54385;53.516;49.456;2023-08-06T06:15:34;1.73;;;1.63;;
67554;SDS011;54385;53.516;49.456;2023-08-06T06:18:06;1.90;;;1.70;;
67554;SDS011;54385;53.516;49.456;2023-08-06T06:20:37;2.22;;;2.03;;
67554;SDS011;54385;53.516;49.456;2023-08-06T06:23:09;2.03;;;1.83;;
67554;SDS011;54385;53.516;49.456;2023-08-06T06:25:48;2.00;;;1.80;;
67554;SDS011;54385;53.516;49.456;2023-08-06T06:28:22;2.40;;;2.20;;
67554;SDS011;54385;53.516;49.456;2023-08-06T06:30:59;2.00;;;1.80;;
67554;SDS011;54385;53.516;49.456;2023-08-06T06:33:32;2.35;;;2.15;;
67554;SDS011;54385;53.516;49.456;2023-08-06T06:36:03;2.00;;;1.90;;
67554;SDS011;54385;53.516;49.456;2023-08-06T06:38:35;2.35;;;2.15;;
67554;SDS011;54385;53.516;49.456;2023-08-06T06:41:07;1.90;;;1.80;;
67554;SDS011;54385;53.516;49.456;2023-08-06T06:43:39;2.00;;;1.88;;
67554;SDS011;54385;53.516;49.456;2023-08-06T06:46:13;2.63;;;2.40;;
67554;SDS011;54385;53.516;49.456;2023-08-06T06:48:45;2.55;;;2.17;;
67554;SDS011;54385;53.516;49.456;2023-08-06T06:51:17;2.33;;;2.13;;
67554;SDS011;54385;53.516;49.456;2023-08-06T06:53:48;1.95;;;1.80;;
67554;SDS011;54385;53.516;49.456;2023-08-06T06:56:20;1.80;;;1.70;;
67554;SDS011;54385;53.516;49.456;2023-08-06T06:58:52;2.13;;;1.92;;
67554;SDS011;54385;53.516;49.456;2023-08-06T07:01:23;2.30;;;2.10;;
67554;SDS011;54385;53.516;49.456;2023-08-06T07:03:55;2.10;;;1.90;;
67554;SDS011;54385;53.516;49.456;2023-08-06T07:06:28;2.10;;;1.90;;
67554;SDS011;54385;53.516;49.456;2023-08-06T07:08:59;2.33;;;1.90;;
67554;SDS011;54385;53.516;49.456;2023-08-06T07:11:43;2.13;;;1.75;;
67554;SDS011;54385;53.516;49.456;2023-08-06T07:14:15;2.40;;;2.03;;
67554;SDS011;54385;53.516;49.456;2023-08-06T07:16:48;2.10;;;1.90;;
67554;SDS011;54385;53.516;49.456;2023-08-06T07:19:20;2.10;;;1.90;;
67554;SDS011;54385;53.516;49.456;2023-08-06T07:21:51;2.20;;;2.00;;
67554;SDS011;54385;53.516;49.456;2023-08-06T07:24:23;1.90;;;1.70;;
67554;SDS011;54385;53.516;49.456;2023-08-06T07:26:55;2.05;;;1.80;;
67554;SDS011;54385;53.516;49.456;2023-08-06T07:29:26;2.38;;;1.90;;
67554;SDS011;54385;53.516;49.456;2023-08-06T07:31:58;1.83;;;1.73;;
67554;SDS011;54385;53.516;49.456;2023-08-06T07:34:30;1.95;;;1.85;;
67554;SDS011;54385;53.516;49.456;2023-08-06T07:37:02;2.00;;;1.80;;
67554;SDS011;54385;53.516;49.456;2023-08-06T07:39:33;2.13;;;1.90;;
67554;SDS011;54385;53.516;49.456;2023-08-06T07:42:10;1.83;;;1.73;;
67554;SDS011;54385;53.516;49.456;2023-08-06T07:44:42;1.90;;;1.80;;
67554;SDS011;54385;53.516;49.456;2023-08-06T07:47:14;1.88;;;1.77;;
67554;SDS011;54385;53.516;49.456;2023-08-06T07:49:46;2.13;;;1.83;;
67554;SDS011;54385;53.516;49.456;2023-08-06T07:52:17;2.20;;;2.00;;
67554;SDS011;54385;53.516;49.456;2023-08-06T07:54:49;2.10;;;1.90;;
67554;SDS011;54385;53.516;49.456;2023-08-06T07:57:21;2.10;;;1.85;;
67554;SDS011;54385;53.516;49.456;2023-08-06T07:59:52;2.13;;;1.92;;
67554;SDS011;54385;53.516;49.456;2023-08-06T08:02:25;2.28;;;2.08;;
67554;SDS011;54385;53.516;49.456;2023-08-06T08:05:01;2.25;;;1.98;;
67554;SDS011;54385;53.516;49.456;2023-08-06T08:07:33;1.92;;;1.73;;
67554;SDS011;54385;53.516;49.456;2023-08-06T08:10:05;1.95;;;1.75;;
67554;SDS011;54385;53.516;49.456;2023-08-06T08:12:37;2.05;;;1.73;;
67554;SDS011;54385;53.516;49.456;2023-08-06T08:15:09;2.05;;;1.85;;
67554;SDS011;54385;53.516;49.456;2023-08-06T08:20:13;1.70;;;1.60;;
67554;SDS011;54385;53.516;49.456;2023-08-06T08:22:46;1.92;;;1.80;;
67554;SDS011;54385;53.516;49.456;2023-08-06T08:25:18;2.20;;;2.00;;
67554;SDS011;54385;53.516;49.456;2023-08-06T08:27:50;1.80;;;1.70;;
67554;SDS011;54385;53.516;49.456;2023-08-06T08:30:21;1.95;;;1.77;;
67554;SDS011;54385;53.516;49.456;2023-08-06T08:32:55;2.22;;;1.85;;
67554;SDS011;54385;53.516;49.456;2023-08-06T08:35:27;1.90;;;1.70;;
67554;SDS011;54385;53.516;49.456;2023-08-06T08:37:59;2.10;;;1.90;;
67554;SDS011;54385;53.516;49.456;2023-08-06T08:40:32;2.50;;;1.90;;
67554;SDS011;54385;53.516;49.456;2023-08-06T08:43:04;2.03;;;1.85;;
67554;SDS011;54385;53.516;49.456;2023-08-06T08:45:36;2.70;;;2.03;;
67554;SDS011;54385;53.516;49.456;2023-08-06T08:48:11;1.83;;;1.73;;
67554;SDS011;54385;53.516;49.456;2023-08-06T08:50:47;1.83;;;1.73;;
67554;SDS011;54385;53.516;49.456;2023-08-06T08:53:20;1.92;;;1.73;;
67554;SDS011;54385;53.516;49.456;2023-08-06T08:55:52;1.77;;;1.67;;
67554;SDS011;54385;53.516;49.456;2023-08-06T08:58:28;1.77;;;1.60;;
67554;SDS011;54385;53.516;49.456;2023-08-06T09:00:59;1.92;;;1.70;;
67554;SDS011;54385;53.516;49.456;2023-08-06T09:03:32;1.70;;;1.60;;
67554;SDS011;54385;53.516;49.456;2023-08-06T09:06:05;1.90;;;1.70;;
67554;SDS011;54385;53.516;49.456;2023-08-06T09:08:39;1.70;;;1.60;;
67554;SDS011;54385;53.516;49.456;2023-08-06T09:11:17;1.70;;;1.60;;
67554;SDS011;54385;53.516;49.456;2023-08-06T09:13:52;1.85;;;1.70;;
67554;SDS011;54385;53.516;49.456;2023-08-06T09:16:25;1.90;;;1.65;;
67554;SDS011;54385;53.516;49.456;2023-08-06T09:18:56;2.10;;;1.63;;
67554;SDS011;54385;53.516;49.456;2023-08-06T09:21:41;1.95;;;1.70;;
67554;SDS011;54385;53.516;49.456;2023-08-06T09:24:13;1.75;;;1.65;;
67554;SDS011;54385;53.516;49.456;2023-08-06T09:26:45;1.50;;;1.40;;
67554;SDS011;54385;53.516;49.456;2023-08-06T09:31:50;2.00;;;1.83;;
67554;SDS011;54385;53.516;49.456;2023-08-06T09:34:24;1.92;;;1.73;;
67554;SDS011;54385;53.516;49.456;2023-08-06T09:36:56;1.98;;;1.77;;
67554;SDS011;54385;53.516;49.456;2023-08-06T09:39:28;2.08;;;1.88;;
67554;SDS011;54385;53.516;49.456;2023-08-06T09:42:01;4.43;;;1.92;;
67554;SDS011;54385;53.516;49.456;2023-08-06T09:44:34;1.67;;;1.58;;
67554;SDS011;54385;53.516;49.456;2023-08-06T09:49:41;2.63;;;2.15;;
67554;SDS011;54385;53.516;49.456;2023-08-06T09:52:13;1.88;;;1.52;;
67554;SDS011;54385;53.516;49.456;2023-08-06T09:54:47;1.90;;;1.70;;
67554;SDS011;54385;53.516;49.456;2023-08-06T09:57:19;1.55;;;1.45;;
67554;SDS011;54385;53.516;49.456;2023-08-06T09:59:51;1.77;;;1.67;;
67554;SDS011;54385;53.516;49.456;2023-08-06T10:02:24;2.20;;;1.80;;
67554;SDS011;54385;53.516;49.456;2023-08-06T10:04:57;1.90;;;1.80;;
67554;SDS011;54385;53.516;49.456;2023-08-06T10:07:30;2.00;;;1.80;;
67554;SDS011;54385;53.516;49.456;2023-08-06T10:10:02;1.50;;;1.40;;
67554;SDS011;54385;53.516;49.456;2023-08-06T10:12:38;1.98;;;1.70;;
67554;SDS011;54385;53.516;49.456;2023-08-06T10:15:16;1.77;;;1.58;;
67554;SDS011;54385;53.516;49.456;2023-08-06T10:17:54;1.70;;;1.60;;
67554;SDS011;54385;53.516;49.456;2023-08-06T10:20:32;1.90;;;1.70;;
67554;SDS011;54385;53.516;49.456;2023-08-06T10:23:07;1.58;;;1.48;;
67554;SDS011;54385;53.516;49.456;2023-08-06T10:25:42;1.58;;;1.48;;
67554;SDS011;54385;53.516;49.456;2023-08-06T10:28:14;1.63;;;1.52;;
67554;SDS011;54385;53.516;49.456;2023-08-06T10:30:46;1.55;;;1.45;;
67554;SDS011;54385;53.516;49.456;2023-08-06T10:33:19;1.70;;;1.40;;
67554;SDS011;54385;53.516;49.456;2023-08-06T10:35:52;1.92;;;1.60;;
67554;SDS011;54385;53.516;49.456;2023-08-06T10:38:32;1.83;;;1.50;;
67554;SDS011;54385;53.516;49.456;2023-08-06T10:43:33;1.58;;;1.40;;
67554;SDS011;54385;53.516;49.456;2023-08-06T10:46:08;1.58;;;1.48;;
67554;SDS011;54385;53.516;49.456;2023-08-06T10:48:40;1.70;;;1.60;;
67554;SDS011;54385;53.516;49.456;2023-08-06T10:51:08;1.70;;;1.60;;
67554;SDS011;54385;53.516;49.456;2023-08-06T10:53:36;1.50;;;1.40;;
67554;SDS011;54385;53.516;49.456;2023-08-06T10:56:14;1.65;;;1.20;;
67554;SDS011;54385;53.516;49.456;2023-08-06T10:58:45;2.00;;;1.50;;
67554;SDS011;54385;53.516;49.456;2023-08-06T11:01:12;1.90;;;1.70;;
67554;SDS011;54385;53.516;49.456;2023-08-06T11:03:40;1.58;;;1.48;;
67554;SDS011;54385;53.516;49.456;2023-08-06T11:06:08;1.63;;;1.52;;
67554;SDS011;54385;53.516;49.456;2023-08-06T11:08:40;1.70;;;1.60;;
67554;SDS011;54385;53.516;49.456;2023-08-06T11:11:13;1.90;;;1.80;;
67554;SDS011;54385;53.516;49.456;2023-08-06T11:13:45;1.50;;;1.27;;
67554;SDS011;54385;53.516;49.456;2023-08-06T11:16:22;1.90;;;1.52;;
67554;SDS011;54385;53.516;49.456;2023-08-06T11:18:53;1.77;;;1.60;;
67554;SDS011;54385;53.516;49.456;2023-08-06T11:21:20;1.80;;;1.50;;
67554;SDS011;54385;53.516;49.456;2023-08-06T11:23:48;1.73;;;1.63;;
67554;SDS011;54385;53.516;49.456;2023-08-06T11:26:18;1.60;;;1.40;;
67554;SDS011;54385;53.516;49.456;2023-08-06T11:28:46;1.50;;;1.38;;
67554;SDS011;54385;53.516;49.456;2023-08-06T11:31:20;1.80;;;1.40;;
67554;SDS011;54385;53.516;49.456;2023-08-06T11:33:50;1.67;;;1.50;;
67554;SDS011;54385;53.516;49.456;2023-08-06T11:36:28;1.55;;;1.45;;
67554;SDS011;54385;53.516;49.456;2023-08-06T11:39:00;1.60;;;1.50;;
67554;SDS011;54385;53.516;49.456;2023-08-06T11:41:29;1.52;;;1.42;;
67554;SDS011;54385;53.516;49.456;2023-08-06T11:43:56;1.70;;;1.58;;
67554;SDS011;54385;53.516;49.456;2023-08-06T11:46:23;1.55;;;1.45;;
67554;SDS011;54385;53.516;49.456;2023-08-06T11:48:54;1.80;;;1.50;;
67554;SDS011;54385;53.516;49.456;2023-08-06T11:51:22;2.03;;;1.83;;
67554;SDS011;54385;53.516;49.456;2023-08-06T11:53:50;2.10;;;1.60;;
67554;SDS011;54385;53.516;49.456;2023-08-06T11:56:17;1.45;;;1.35;;
67554;SDS011;54385;53.516;49.456;2023-08-06T11:58:44;1.67;;;1.50;;
67554;SDS011;54385;53.516;49.456;2023-08-06T12:01:14;1.58;;;1.38;;
67554;SDS011;54385;53.516;49.456;2023-08-06T12:03:41;1.33;;;1.23;;
67554;SDS011;54385;53.516;49.456;2023-08-06T12:06:08;1.77;;;1.40;;
67554;SDS011;54385;53.516;49.456;2023-08-06T12:08:34;1.60;;;1.50;;
67554;SDS011;54385;53.516;49.456;2023-08-06T12:11:01;1.35;;;1.25;;
67554;SDS011;54385;53.516;49.456;2023-08-06T12:13:28;1.45;;;1.35;;
67554;SDS011;54385;53.516;49.456;2023-08-06T12:15:55;1.50;;;1.40;;
67554;SDS011;54385;53.516;49.456;2023-08-06T12:18:23;1.45;;;1.30;;
67554;SDS011;54385;53.516;49.456;2023-08-06T12:20:50;1.42;;;1.33;;
67554;SDS011;54385;53.516;49.456;2023-08-06T12:23:17;1.33;;;1.20;;
67554;SDS011;54385;53.516;49.456;2023-08-06T12:25:44;1.48;;;1.38;;
67554;SDS011;54385;53.516;49.456;2023-08-06T12:28:11;1.85;;;1.50;;
67554;SDS011;54385;53.516;49.456;2023-08-06T12:30:39;1.63;;;1.30;;
67554;SDS011;54385;53.516;49.456;2023-08-06T12:33:08;1.50;;;1.40;;
67554;SDS011;54385;53.516;49.456;2023-08-06T12:35:35;1.45;;;1.35;;
67554;SDS011;54385;53.516;49.456;2023-08-06T12:38:04;1.50;;;1.40;;
67554;SDS011;54385;53.516;49.456;2023-08-06T12:40:31;1.65;;;1.52;;
67554;SDS011;54385;53.516;49.456;2023-08-06T12:42:58;1.42;;;1.33;;
67554;SDS011;54385;53.516;49.456;2023-08-06T12:45:25;1.85;;;1.63;;
67554;SDS011;54385;53.516;49.456;2023-08-06T12:47:52;1.70;;;1.38;;
67554;SDS011;54385;53.516;49.456;2023-08-06T12:50:19;1.42;;;1.33;;
67554;SDS011;54385;53.516;49.456;2023-08-06T12:52:46;1.40;;;1.20;;
67554;SDS011;54385;53.516;49.456;2023-08-06T12:55:13;1.50;;;1.33;;
67554;SDS011;54385;53.516;49.456;2023-08-06T12:57:39;1.40;;;1.20;;
67554;SDS011;54385;53.516;49.456;2023-08-06T13:00:06;1.35;;;1.25;;
67554;SDS011;54385;53.516;49.456;2023-08-06T13:02:33;1.40;;;1.05;;
67554;SDS011;54385;53.516;49.456;2023-08-06T13:05:00;1.17;;;1.08;;
67554;SDS011;54385;53.516;49.456;2023-08-06T13:07:31;1.58;;;1.45;;
67554;SDS011;54385;53.516;49.456;2023-08-06T13:10:01;1.30;;;1.20;;
67554;SDS011;54385;53.516;49.456;2023-08-06T13:12:30;1.20;;;1.10;;
67554;SDS011;54385;53.516;49.456;2023-08-06T13:14:58;1.67;;;1.35;;
67554;SDS011;54385;53.516;49.456;2023-08-06T13:17:25;1.38;;;1.27;;
67554;SDS011;54385;53.516;49.456;2023-08-06T13:19:53;1.30;;;1.15;;
67554;SDS011;54385;53.516;49.456;2023-08-06T13:22:20;1.30;;;1.20;;
67554;SDS011;54385;53.516;49.456;2023-08-06T13:24:50;1.35;;;1.25;;
67554;SDS011;54385;53.516;49.456;2023-08-06T13:27:21;1.40;;;1.30;;
67554;SDS011;54385;53.516;49.456;2023-08-06T13:29:47;1.20;;;1.10;;
67554;SDS011;54385;53.516;49.456;2023-08-06T13:32:14;1.38;;;1.27;;
67554;SDS011;54385;53.516;49.456;2023-08-06T13:34:40;1.42;;;1.33;;
67554;SDS011;54385;53.516;49.456;2023-08-06T13:37:07;1.60;;;1.50;;
67554;SDS011;54385;53.516;49.456;2023-08-06T13:39:33;1.40;;;1.30;;
67554;SDS011;54385;53.516;49.456;2023-08-06T13:41:59;1.48;;;1.38;;
67554;SDS011;54385;53.516;49.456;2023-08-06T13:44:26;1.30;;;1.20;;
67554;SDS011;54385;53.516;49.456;2023-08-06T13:46:55;1.90;;;1.13;;
67554;SDS011;54385;53.516;49.456;2023-08-06T13:49:23;1.40;;;1.20;;
67554;SDS011;54385;53.516;49.456;2023-08-06T13:51:50;1.27;;;1.13;;
67554;SDS011;54385;53.516;49.456;2023-08-06T13:54:16;1.50;;;1.35;;
67554;SDS011;54385;53.516;49.456;2023-08-06T13:56:43;1.33;;;1.17;;
67554;SDS011;54385;53.516;49.456;2023-08-06T13:59:09;1.45;;;1.25;;
67554;SDS011;54385;53.516;49.456;2023-08-06T14:01:40;1.10;;;1.00;;
67554;SDS011;54385;53.516;49.456;2023-08-06T14:04:06;1.20;;;1.10;;
67554;SDS011;54385;53.516;49.456;2023-08-06T14:06:32;1.50;;;1.40;;
67554;SDS011;54385;53.516;49.456;2023-08-06T14:09:01;1.48;;;1.23;;
67554;SDS011;54385;53.516;49.456;2023-08-06T14:11:28;1.33;;;1.23;;
67554;SDS011;54385;53.516;49.456;2023-08-06T14:13:54;1.40;;;1.25;;
67554;SDS011;54385;53.516;49.456;2023-08-06T14:16:21;1.45;;;1.35;;
67554;SDS011;54385;53.516;49.456;2023-08-06T14:18:50;1.52;;;1.42;;
67554;SDS011;54385;53.516;49.456;2023-08-06T14:21:17;1.40;;;1.30;;
67554;SDS011;54385;53.516;49.456;2023-08-06T14:23:43;1.67;;;1.35;;
67554;SDS011;54385;53.516;49.456;2023-08-06T14:26:11;1.25;;;1.15;;
67554;SDS011;54385;53.516;49.456;2023-08-06T14:28:40;1.63;;;1.40;;
67554;SDS011;54385;53.516;49.456;2023-08-06T14:31:07;1.77;;;1.40;;
67554;SDS011;54385;53.516;49.456;2023-08-06T14:33:33;1.38;;;1.27;;
67554;SDS011;54385;53.516;49.456;2023-08-06T14:35:59;1.70;;;1.38;;
67554;SDS011;54385;53.516;49.456;2023-08-06T14:38:27;1.60;;;1.30;;
67554;SDS011;54385;53.516;49.456;2023-08-06T14:40:53;1.38;;;1.25;;
67554;SDS011;54385;53.516;49.456;2023-08-06T14:43:20;1.67;;;1.40;;
67554;SDS011;54385;53.516;49.456;2023-08-06T14:45:46;1.42;;;1.30;;
67554;SDS011;54385;53.516;49.456;2023-08-06T14:48:13;1.40;;;1.30;;
67554;SDS011;54385;53.516;49.456;2023-08-06T14:50:39;2.03;;;1.38;;
67554;SDS011;54385;53.516;49.456;2023-08-06T14:53:06;1.40;;;1.30;;
67554;SDS011;54385;53.516;49.456;2023-08-06T14:55:34;1.77;;;1.33;;
67554;SDS011;54385;53.516;49.456;2023-08-06T14:58:00;1.73;;;1.50;;
67554;SDS011;54385;53.516;49.456;2023-08-06T15:00:27;1.30;;;1.10;;
67554;SDS011;54385;53.516;49.456;2023-08-06T15:02:53;1.40;;;1.10;;
67554;SDS011;54385;53.516;49.456;2023-08-06T15:05:20;1.40;;;1.30;;
67554;SDS011;54385;53.516;49.456;2023-08-06T15:07:46;1.35;;;1.25;;
67554;SDS011;54385;53.516;49.456;2023-08-06T15:10:13;1.40;;;1.30;;
67554;SDS011;54385;53.516;49.456;2023-08-06T15:12:41;1.55;;;1.23;;
67554;SDS011;54385;53.516;49.456;2023-08-06T15:15:07;1.58;;;1.45;;
67554;SDS011;54385;53.516;49.456;2023-08-06T15:17:34;1.70;;;1.30;;
67554;SDS011;54385;53.516;49.456;2023-08-06T15:20:01;1.58;;;1.35;;
67554;SDS011;54385;53.516;49.456;2023-08-06T15:22:28;1.52;;;1.30;;